デリー の空港の天気 - METARとTAF

インディラ・ガンディー国際空港 ( VIDP / DEL ) - インド デリー
飛行場実況気象(Metar)
観測時間12/14 11:30 IST (12/14 06:00 UTC)
風向・風速西 2m/s
視程1000m
天気現象地霧
なし
気温15℃
湿度82%
気圧1024hPa
METARVIDP 140600Z 27004KT 1000 R28/1800 R29/P2000 MIFG NSC 15/12 Q1024 NOSIG
過去の天気等 Google飛行場航空写真 Wunderground天気予報

過去48時間のMETAR

飛行場予報(TAF)
発表時間: 12/14 10:30 IST (12/14 05:00 UTC)
予報対象時間: 14日11時 IST ~ 15日17時 IST
風向・風速西南西 3m/s
視程1000m
天気現象もや
なし
14日13時 IST ~ 14日15時 IST に徐々に
風向・風速西北西 3m/s
視程2500m
天気現象煙霧
少しの雲 雲底高度 3050m
14日20時 IST ~ 14日22時 IST に徐々に
風向・風速北西 2m/s
視程1500m
天気現象もや
15日5時 IST ~ 15日7時 IST に徐々に
風向・風速西 2m/s
視程600m
天気現象地霧
なし
15日9時 IST ~ 15日11時 IST に徐々に
視程1000m
天気現象もや
なし
TAF VIDP 140500Z 1406/1512 25006KT 1000 BR NSC
BECMG 1408/1410 29006KT 2500 HZ FEW100
BECMG 1415/1417 31004KT 1500 BR
BECMG 1500/1502 27004KT 0600 MIFG NSC
BECMG 1504/1506 1000 BR NSC